Time;durP1;ratioP1;P1;durP2;ratioP2;P2;SDS_P1;SDS_P2;PMS_P1;PMS_P2;Temp;Humidity;BMP_temperature;BMP_pressure;BME280_temperature;BME280_humidity;BME280_pressure;Samples;Min_cycle;Max_cycle;Signal;HPM_P1;HPM_P2
2023/01/23 00:00:37;;;;;;;17.53;14.63;;;;;;;;;;5072475;28;20460;-75
2023/01/23 00:03:05;;;;;;;17.67;14.10;;;;;;;;;;5072148;28;20500;-76
2023/01/23 00:05:33;;;;;;;15.77;13.87;;;;;;;;;;5071775;28;20449;-75
2023/01/23 00:08:00;;;;;;;16.07;14.37;;;;;;;;;;5072009;28;20483;-76
2023/01/23 00:10:27;;;;;;;15.83;13.93;;;;;;;;;;5071803;28;20480;-74
2023/01/23 00:12:56;;;;;;;16.13;14.53;;;;;;;;;;5072180;28;20481;-74
2023/01/23 00:15:23;;;;;;;15.93;14.23;;;;;;;;;;5066654;28;20446;-77
2023/01/23 00:17:51;;;;;;;16.63;14.83;;;;;;;;;;5052130;28;20500;-75
2023/01/23 00:20:18;;;;;;;17.27;14.67;;;;;;;;;;5051683;28;20956;-75
2023/01/23 00:22:46;;;;;;;16.67;14.33;;;;;;;;;;5051716;28;20447;-75
2023/01/23 00:25:13;;;;;;;17.20;15.17;;;;;;;;;;5051980;28;20730;-76
2023/01/23 00:27:40;;;;;;;16.63;14.83;;;;;;;;;;5051278;28;20454;-74
2023/01/23 00:30:08;;;;;;;13.90;12.50;;;;;;;;;;5051358;28;20458;-76
2023/01/23 00:32:35;;;;;;;18.70;15.83;;;;;;;;;;5051120;28;20483;-75
2023/01/23 00:35:02;;;;;;;15.70;14.00;;;;;;;;;;5050934;28;20445;-76
2023/01/23 00:37:29;;;;;;;15.93;14.23;;;;;;;;;;5051130;28;20443;-75
2023/01/23 00:39:57;;;;;;;17.27;14.93;;;;;;;;;;5051091;28;20513;-76
2023/01/23 00:42:24;;;;;;;15.57;13.67;;;;;;;;;;5051529;28;20790;-74
2023/01/23 00:44:51;;;;;;;14.70;13.20;;;;;;;;;;5051702;28;20454;-74
2023/01/23 00:47:18;;;;;;;18.03;14.00;;;;;;;;;;5057472;28;20456;-75
2023/01/23 00:49:45;;;;;;;15.27;13.63;;;;;;;;;;5056256;28;20516;-74
2023/01/23 00:52:12;;;;;;;16.80;14.40;;;;;;;;;;5053013;28;20496;-76
2023/01/23 00:54:39;;;;;;;16.60;12.97;;;;;;;;;;5053356;28;20450;-73
2023/01/23 00:57:08;;;;;;;16.00;13.73;;;;;;;;;;5055329;28;20446;-75
2023/01/23 00:59:35;;;;;;;15.70;13.33;;;;;;;;;;5053454;28;20477;-74
2023/01/23 01:02:02;;;;;;;14.93;13.33;;;;;;;;;;5055440;28;20453;-73
2023/01/23 01:04:29;;;;;;;14.40;12.90;;;;;;;;;;5058079;28;20970;-74
2023/01/23 01:06:56;;;;;;;15.37;12.63;;;;;;;;;;5051734;28;20468;-74
2023/01/23 01:09:23;;;;;;;14.30;11.57;;;;;;;;;;5051921;28;20472;-75
2023/01/23 01:11:50;;;;;;;16.00;12.97;;;;;;;;;;5050392;28;20677;-74
2023/01/23 01:14:19;;;;;;;14.37;12.27;;;;;;;;;;5050658;28;20450;-74
2023/01/23 01:16:46;;;;;;;14.40;12.70;;;;;;;;;;5050565;28;20442;-74
2023/01/23 01:19:13;;;;;;;13.07;11.53;;;;;;;;;;5050727;28;20466;-75
2023/01/23 01:21:41;;;;;;;15.10;12.10;;;;;;;;;;5050213;28;20459;-74
2023/01/23 01:24:08;;;;;;;15.13;13.33;;;;;;;;;;5050481;28;20431;-75
2023/01/23 01:26:35;;;;;;;16.00;12.57;;;;;;;;;;5050576;28;20447;-76
2023/01/23 01:29:03;;;;;;;14.87;12.27;;;;;;;;;;5050140;28;20466;-74
2023/01/23 01:31:31;;;;;;;16.20;13.63;;;;;;;;;;5049947;28;20446;-75
2023/01/23 01:33:58;;;;;;;15.73;12.40;;;;;;;;;;5049802;28;20478;-74
2023/01/23 01:36:25;;;;;;;13.40;11.73;;;;;;;;;;5050088;28;20454;-74
2023/01/23 01:38:53;;;;;;;15.60;13.03;;;;;;;;;;5050497;28;20473;-74
2023/01/23 01:41:20;;;;;;;16.53;12.57;;;;;;;;;;5049854;28;20481;-74
2023/01/23 01:43:47;;;;;;;15.30;12.87;;;;;;;;;;5049724;28;20473;-75
2023/01/23 01:46:19;;;;;;;14.67;13.10;;;;;;;;;;5052182;28;20727;-75
2023/01/23 01:48:50;;;;;;;14.00;12.47;;;;;;;;;;5052501;28;20458;-76
2023/01/23 01:51:20;;;;;;;14.43;12.20;;;;;;;;;;5056055;28;20459;-75
2023/01/23 01:53:48;;;;;;;13.83;12.30;;;;;;;;;;5054644;28;20503;-74
2023/01/23 01:56:16;;;;;;;12.97;11.60;;;;;;;;;;5055018;28;21016;-74
2023/01/23 01:58:44;;;;;;;14.47;12.70;;;;;;;;;;5054903;28;20457;-75
2023/01/23 02:01:11;;;;;;;14.53;12.23;;;;;;;;;;5055546;28;20545;-74
2023/01/23 02:03:39;;;;;;;15.53;12.23;;;;;;;;;;5070518;28;20522;-75
2023/01/23 02:06:07;;;;;;;16.63;14.90;;;;;;;;;;5056053;28;20449;-74
2023/01/23 02:08:38;;;;;;;12.63;11.33;;;;;;;;;;5054295;28;20473;-75
2023/01/23 02:11:05;;;;;;;15.90;13.07;;;;;;;;;;5055619;28;20446;-74
2023/01/23 02:13:34;;;;;;;15.87;13.63;;;;;;;;;;5054983;28;20509;-73
2023/01/23 02:16:04;;;;;;;14.03;12.53;;;;;;;;;;5066480;28;20447;-75
2023/01/23 02:18:31;;;;;;;12.43;11.13;;;;;;;;;;5072595;28;20436;-74
2023/01/23 02:21:00;;;;;;;14.60;13.03;;;;;;;;;;5089593;28;20422;-73
2023/01/23 02:23:31;;;;;;;15.23;13.63;;;;;;;;;;5097223;28;20431;-73
2023/01/23 02:26:00;;;;;;;14.37;12.30;;;;;;;;;;5082310;28;20921;-75
2023/01/23 02:28:37;;;;;;;15.40;13.50;;;;;;;;;;5074472;28;20446;-73
2023/01/23 02:31:04;;;;;;;15.70;13.20;;;;;;;;;;5073261;28;20442;-74
2023/01/23 02:33:45;;;;;;;15.60;13.60;;;;;;;;;;5072439;28;20484;-73
2023/01/23 02:36:12;;;;;;;15.77;13.40;;;;;;;;;;5072742;28;20503;-74
2023/01/23 02:38:43;;;;;;;14.50;13.00;;;;;;;;;;5073196;28;20453;-75
2023/01/23 02:41:13;;;;;;;15.77;13.50;;;;;;;;;;5073213;28;20444;-74
2023/01/23 02:43:40;;;;;;;16.33;12.47;;;;;;;;;;5072513;28;20440;-73
2023/01/23 02:46:08;;;;;;;16.53;12.97;;;;;;;;;;5072931;28;20442;-74
2023/01/23 02:48:35;;;;;;;16.17;13.13;;;;;;;;;;5073051;28;20466;-76
2023/01/23 02:51:02;;;;;;;16.70;14.17;;;;;;;;;;5073444;28;20870;-73
2023/01/23 02:53:30;;;;;;;16.73;13.57;;;;;;;;;;5073444;28;20511;-75
2023/01/23 02:55:59;;;;;;;16.53;13.93;;;;;;;;;;5072751;28;20453;-74
2023/01/23 03:01:12;;;;;;;16.33;13.70;;;;;;;;;;5073639;28;20794;-73
2023/01/23 03:03:41;;;;;;;16.83;13.10;;;;;;;;;;5072136;28;20446;-74
2023/01/23 03:06:08;;;;;;;15.80;13.10;;;;;;;;;;5072589;28;20465;-76
2023/01/23 03:08:46;;;;;;;16.77;13.00;;;;;;;;;;5072289;28;20456;-74
2023/01/23 03:11:13;;;;;;;15.23;12.70;;;;;;;;;;5072102;28;20853;-74
2023/01/23 03:13:41;;;;;;;19.80;14.80;;;;;;;;;;5071651;28;20482;-74
2023/01/23 03:16:09;;;;;;;16.57;14.80;;;;;;;;;;5072254;28;20441;-74
2023/01/23 03:18:36;;;;;;;15.73;12.90;;;;;;;;;;5072362;28;20480;-74
2023/01/23 03:21:03;;;;;;;16.70;13.80;;;;;;;;;;5072397;28;20456;-74
2023/01/23 03:23:30;;;;;;;18.43;15.43;;;;;;;;;;5071797;28;20441;-73
2023/01/23 03:25:58;;;;;;;17.33;14.20;;;;;;;;;;5071953;28;20438;-75
2023/01/23 03:31:11;;;;;;;22.13;14.97;;;;;;;;;;5071848;28;20449;-76
2023/01/23 03:33:41;;;;;;;19.67;14.80;;;;;;;;;;5071577;28;20480;-74
2023/01/23 03:36:09;;;;;;;18.40;15.27;;;;;;;;;;5071975;28;20449;-75
2023/01/23 03:38:36;;;;;;;17.43;14.37;;;;;;;;;;5073178;28;20445;-74
2023/01/23 03:43:48;;;;;;;19.27;16.07;;;;;;;;;;5071656;28;20483;-74
2023/01/23 03:46:16;;;;;;;16.73;13.60;;;;;;;;;;5072481;28;20487;-76
2023/01/23 03:48:43;;;;;;;16.70;14.40;;;;;;;;;;5071829;28;20685;-74
2023/01/23 03:51:10;;;;;;;17.23;15.03;;;;;;;;;;5071473;28;20460;-74
2023/01/23 03:53:37;;;;;;;17.03;15.13;;;;;;;;;;5074271;28;20476;-74
2023/01/23 03:56:05;;;;;;;17.30;14.33;;;;;;;;;;5074894;28;20448;-74
2023/01/23 03:58:32;;;;;;;19.87;15.23;;;;;;;;;;5072864;28;20528;-74
2023/01/23 04:01:02;;;;;;;18.60;14.87;;;;;;;;;;5075423;28;20828;-73
2023/01/23 04:03:30;;;;;;;20.87;15.80;;;;;;;;;;5072457;28;21064;-75
2023/01/23 04:05:57;;;;;;;19.27;15.43;;;;;;;;;;5071475;28;20449;-74
2023/01/23 04:08:25;;;;;;;20.67;15.40;;;;;;;;;;5070881;28;20453;-74
2023/01/23 04:10:52;;;;;;;21.77;16.70;;;;;;;;;;5070734;28;20458;-74
2023/01/23 04:13:19;;;;;;;20.67;15.80;;;;;;;;;;5070327;28;20484;-75
2023/01/23 04:15:46;;;;;;;18.80;14.90;;;;;;;;;;5062205;28;20447;-74
2023/01/23 04:18:13;;;;;;;19.73;15.10;;;;;;;;;;5050178;28;20441;-74
2023/01/23 04:20:41;;;;;;;18.50;15.37;;;;;;;;;;5051635;28;20465;-76
2023/01/23 04:23:08;;;;;;;18.77;15.23;;;;;;;;;;5052038;28;20471;-75
2023/01/23 04:25:35;;;;;;;18.23;14.47;;;;;;;;;;5052791;28;20450;-74
2023/01/23 04:28:02;;;;;;;19.70;15.60;;;;;;;;;;5051356;28;20461;-76
2023/01/23 04:30:29;;;;;;;20.80;15.00;;;;;;;;;;5050458;28;20831;-74
2023/01/23 04:32:56;;;;;;;18.87;15.40;;;;;;;;;;5050865;28;20450;-75
2023/01/23 04:35:23;;;;;;;17.77;15.10;;;;;;;;;;5050956;28;20445;-76
2023/01/23 04:37:52;;;;;;;20.20;15.73;;;;;;;;;;5051267;28;20861;-74
2023/01/23 04:40:19;;;;;;;19.10;15.07;;;;;;;;;;5050564;28;20458;-73
2023/01/23 04:42:46;;;;;;;23.73;17.43;;;;;;;;;;5050662;28;20475;-74
2023/01/23 04:45:13;;;;;;;17.60;13.80;;;;;;;;;;5050419;28;20442;-74
2023/01/23 04:47:40;;;;;;;17.97;14.30;;;;;;;;;;5051297;28;20951;-75
2023/01/23 04:50:07;;;;;;;16.97;14.17;;;;;;;;;;5051265;28;20781;-74
2023/01/23 04:52:34;;;;;;;21.20;15.87;;;;;;;;;;5050426;28;20462;-73
2023/01/23 04:55:02;;;;;;;19.47;15.03;;;;;;;;;;5050603;28;20501;-74
2023/01/23 04:57:29;;;;;;;19.40;14.73;;;;;;;;;;5050367;28;20801;-74
2023/01/23 04:59:57;;;;;;;19.50;15.63;;;;;;;;;;5050817;28;20476;-74
2023/01/23 05:02:24;;;;;;;19.50;15.00;;;;;;;;;;5050678;28;20457;-74
2023/01/23 05:04:51;;;;;;;19.13;15.77;;;;;;;;;;5050408;28;20446;-74
2023/01/23 05:07:18;;;;;;;20.03;15.03;;;;;;;;;;5050396;28;20885;-74
2023/01/23 05:09:45;;;;;;;20.10;15.80;;;;;;;;;;5050683;28;20918;-74
2023/01/23 05:12:13;;;;;;;19.40;15.07;;;;;;;;;;5050366;28;20438;-74
2023/01/23 05:14:40;;;;;;;19.80;15.60;;;;;;;;;;5050345;28;20566;-73
2023/01/23 05:17:07;;;;;;;18.53;14.50;;;;;;;;;;5070484;28;20452;-74
2023/01/23 05:19:34;;;;;;;20.83;16.10;;;;;;;;;;5069867;28;20477;-74
2023/01/23 05:22:01;;;;;;;20.07;15.17;;;;;;;;;;5069847;28;20445;-74
2023/01/23 05:24:28;;;;;;;19.77;15.60;;;;;;;;;;5068815;28;20536;-75
2023/01/23 05:26:55;;;;;;;19.10;16.30;;;;;;;;;;5069550;28;20446;-74
2023/01/23 05:29:24;;;;;;;22.80;16.77;;;;;;;;;;5070325;28;20472;-75
2023/01/23 05:31:51;;;;;;;19.03;15.07;;;;;;;;;;5069775;28;20983;-75
2023/01/23 05:34:18;;;;;;;19.27;16.00;;;;;;;;;;5083164;28;20476;-73
2023/01/23 05:36:45;;;;;;;16.67;14.53;;;;;;;;;;5086757;28;20441;-74
2023/01/23 05:39:12;;;;;;;18.47;14.90;;;;;;;;;;5083815;28;20554;-74
2023/01/23 05:41:39;;;;;;;21.17;15.60;;;;;;;;;;5083284;28;20440;-74
2023/01/23 05:44:06;;;;;;;20.00;14.70;;;;;;;;;;5081339;28;20920;-73
2023/01/23 05:46:34;;;;;;;19.83;16.00;;;;;;;;;;5075832;28;20437;-75
2023/01/23 05:49:01;;;;;;;19.77;15.87;;;;;;;;;;5075291;28;20472;-74
2023/01/23 05:51:31;;;;;;;18.60;14.60;;;;;;;;;;5074927;28;20454;-76
2023/01/23 05:53:58;;;;;;;19.03;15.60;;;;;;;;;;5074512;28;21045;-74
2023/01/23 05:56:25;;;;;;;21.30;16.37;;;;;;;;;;5075503;28;20448;-76
2023/01/23 05:58:52;;;;;;;20.37;14.80;;;;;;;;;;5075194;28;20464;-74
2023/01/23 06:01:19;;;;;;;20.73;15.47;;;;;;;;;;5073467;28;20940;-74
2023/01/23 06:03:48;;;;;;;18.23;14.30;;;;;;;;;;5073452;28;20542;-73
2023/01/23 06:06:15;;;;;;;18.13;13.70;;;;;;;;;;5074105;28;20873;-75
2023/01/23 06:08:42;;;;;;;19.60;14.80;;;;;;;;;;5072862;28;20444;-75
2023/01/23 06:11:09;;;;;;;20.00;14.93;;;;;;;;;;5072040;28;20942;-73
2023/01/23 06:13:36;;;;;;;19.90;15.70;;;;;;;;;;5070333;28;20485;-74
2023/01/23 06:16:03;;;;;;;17.70;14.30;;;;;;;;;;5058566;28;20442;-74
2023/01/23 06:18:31;;;;;;;21.87;15.27;;;;;;;;;;5050330;28;20445;-75
2023/01/23 06:21:00;;;;;;;22.50;15.70;;;;;;;;;;5049714;28;20464;-75
2023/01/23 06:23:27;;;;;;;20.13;15.20;;;;;;;;;;5049429;28;20480;-75
2023/01/23 06:25:54;;;;;;;19.17;14.63;;;;;;;;;;5049865;28;20453;-73
2023/01/23 06:28:21;;;;;;;19.40;14.47;;;;;;;;;;5050843;28;20451;-74
2023/01/23 06:30:48;;;;;;;18.67;15.50;;;;;;;;;;5054568;28;20471;-75
2023/01/23 06:33:15;;;;;;;19.30;14.37;;;;;;;;;;5054256;28;20445;-74
2023/01/23 06:35:42;;;;;;;22.53;15.37;;;;;;;;;;5053108;28;20488;-76
2023/01/23 06:38:11;;;;;;;19.50;14.70;;;;;;;;;;5055228;28;20447;-74
2023/01/23 06:40:38;;;;;;;21.57;16.30;;;;;;;;;;5053146;28;20469;-74
2023/01/23 06:43:05;;;;;;;20.73;15.20;;;;;;;;;;5053410;28;20991;-75
2023/01/23 06:45:32;;;;;;;19.93;15.30;;;;;;;;;;5054216;28;20474;-75
2023/01/23 06:47:59;;;;;;;20.37;15.40;;;;;;;;;;5054764;28;20507;-74
2023/01/23 06:50:26;;;;;;;21.07;15.53;;;;;;;;;;5053668;28;20468;-74
2023/01/23 06:52:53;;;;;;;18.70;14.40;;;;;;;;;;5056059;28;20449;-73
2023/01/23 06:55:21;;;;;;;19.60;14.87;;;;;;;;;;5054588;28;20994;-73
2023/01/23 06:57:48;;;;;;;20.40;14.10;;;;;;;;;;5053067;28;20499;-74
2023/01/23 07:00:16;;;;;;;20.10;15.53;;;;;;;;;;5053432;28;20800;-74
2023/01/23 07:02:43;;;;;;;19.77;14.37;;;;;;;;;;5053141;28;20897;-76
2023/01/23 07:05:10;;;;;;;17.50;13.83;;;;;;;;;;5052844;28;20439;-73
2023/01/23 07:07:37;;;;;;;22.20;15.40;;;;;;;;;;5052852;28;20528;-74
2023/01/23 07:10:04;;;;;;;22.60;16.23;;;;;;;;;;5052896;28;20470;-73
2023/01/23 07:12:33;;;;;;;18.90;14.30;;;;;;;;;;5053045;28;20453;-75
2023/01/23 07:15:00;;;;;;;24.70;15.83;;;;;;;;;;5055384;28;20502;-74
2023/01/23 07:17:27;;;;;;;22.50;15.63;;;;;;;;;;5072803;28;20448;-74
2023/01/23 07:19:54;;;;;;;19.43;14.90;;;;;;;;;;5072539;28;20462;-73
2023/01/23 07:22:22;;;;;;;21.60;16.13;;;;;;;;;;5072967;28;20471;-75
2023/01/23 07:24:49;;;;;;;21.33;16.00;;;;;;;;;;5075397;28;20454;-73
2023/01/23 07:27:16;;;;;;;19.47;14.83;;;;;;;;;;5072356;28;20961;-73
2023/01/23 07:29:45;;;;;;;20.97;16.33;;;;;;;;;;5072427;28;20468;-74
2023/01/23 07:32:12;;;;;;;23.60;16.70;;;;;;;;;;5072339;28;20452;-74
2023/01/23 07:34:39;;;;;;;21.07;15.10;;;;;;;;;;5072057;28;20491;-73
2023/01/23 07:37:06;;;;;;;21.67;15.50;;;;;;;;;;5073819;28;20446;-73
2023/01/23 07:39:33;;;;;;;18.60;14.53;;;;;;;;;;5073810;28;20469;-73
2023/01/23 07:42:00;;;;;;;21.80;16.37;;;;;;;;;;5078501;28;20448;-74
2023/01/23 07:44:27;;;;;;;19.90;15.90;;;;;;;;;;5082947;28;20440;-73
2023/01/23 07:46:55;;;;;;;23.80;16.93;;;;;;;;;;5082019;28;20445;-73
2023/01/23 07:49:23;;;;;;;22.20;15.20;;;;;;;;;;5083744;28;20465;-74
2023/01/23 07:51:50;;;;;;;22.10;16.10;;;;;;;;;;5082176;28;20448;-73
2023/01/23 07:54:17;;;;;;;20.87;14.83;;;;;;;;;;5074570;28;20488;-74
2023/01/23 07:56:44;;;;;;;21.80;16.70;;;;;;;;;;5071674;28;20457;-74
2023/01/23 07:59:12;;;;;;;22.20;15.07;;;;;;;;;;5071613;28;20472;-74
2023/01/23 08:01:39;;;;;;;22.20;16.27;;;;;;;;;;5071595;28;20460;-74
2023/01/23 08:04:07;;;;;;;23.00;16.37;;;;;;;;;;5071076;28;20440;-73
2023/01/23 08:06:35;;;;;;;23.10;16.67;;;;;;;;;;5071262;28;20457;-74
2023/01/23 08:09:02;;;;;;;23.20;15.70;;;;;;;;;;5072208;28;20465;-73
2023/01/23 08:11:29;;;;;;;19.63;15.27;;;;;;;;;;5076493;28;20448;-73
2023/01/23 08:13:56;;;;;;;25.43;17.63;;;;;;;;;;5074992;28;20453;-74
2023/01/23 08:16:23;;;;;;;23.37;16.53;;;;;;;;;;5058346;28;20482;-74
2023/01/23 08:18:50;;;;;;;22.50;15.87;;;;;;;;;;5052033;28;20981;-74
2023/01/23 08:21:19;;;;;;;24.20;16.40;;;;;;;;;;5052886;28;20461;-73
2023/01/23 08:23:46;;;;;;;25.63;18.23;;;;;;;;;;5052735;28;20445;-75
2023/01/23 08:26:14;;;;;;;21.83;16.50;;;;;;;;;;5051483;28;20477;-73
2023/01/23 08:28:41;;;;;;;25.30;16.70;;;;;;;;;;5051701;28;20501;-75
2023/01/23 08:31:09;;;;;;;25.70;17.73;;;;;;;;;;5051001;28;20453;-72
2023/01/23 08:33:37;;;;;;;27.17;17.23;;;;;;;;;;5050907;28;20941;-73
2023/01/23 08:36:05;;;;;;;26.07;17.10;;;;;;;;;;5056357;28;20728;-73
2023/01/23 08:38:33;;;;;;;26.20;18.27;;;;;;;;;;5071866;28;20464;-74
2023/01/23 08:41:01;;;;;;;28.27;19.67;;;;;;;;;;5065734;28;20494;-73
2023/01/23 08:43:28;;;;;;;25.73;17.93;;;;;;;;;;5072901;28;20952;-75
2023/01/23 08:45:56;;;;;;;27.13;17.37;;;;;;;;;;5073171;28;20537;-74
2023/01/23 08:48:24;;;;;;;25.90;17.97;;;;;;;;;;5072647;28;20772;-75
2023/01/23 08:50:52;;;;;;;24.10;16.87;;;;;;;;;;5071776;28;20461;-73
2023/01/23 08:53:19;;;;;;;25.70;17.83;;;;;;;;;;5075413;28;20524;-73
2023/01/23 08:55:47;;;;;;;23.40;17.07;;;;;;;;;;5077243;28;20483;-74
2023/01/23 08:58:14;;;;;;;25.00;17.03;;;;;;;;;;5070872;28;20444;-74
2023/01/23 09:00:41;;;;;;;20.67;15.80;;;;;;;;;;5070760;28;20466;-74
2023/01/23 09:03:08;;;;;;;22.40;16.00;;;;;;;;;;5070315;28;20808;-75
2023/01/23 09:05:36;;;;;;;18.60;13.77;;;;;;;;;;5070393;28;20436;-74
2023/01/23 09:08:03;;;;;;;18.63;14.17;;;;;;;;;;5070667;28;20462;-73
2023/01/23 09:10:30;;;;;;;19.07;13.87;;;;;;;;;;5070615;28;20468;-75
2023/01/23 09:12:58;;;;;;;17.63;13.70;;;;;;;;;;5070494;28;20453;-75
2023/01/23 09:15:25;;;;;;;22.37;14.67;;;;;;;;;;5064415;28;20470;-74
2023/01/23 09:17:52;;;;;;;17.67;13.00;;;;;;;;;;5050347;28;20846;-73
2023/01/23 09:20:19;;;;;;;17.53;13.03;;;;;;;;;;5050365;28;20496;-74
2023/01/23 09:22:46;;;;;;;22.73;14.30;;;;;;;;;;5055220;28;20453;-75
2023/01/23 09:25:14;;;;;;;15.93;12.70;;;;;;;;;;5054386;28;20446;-74
2023/01/23 09:27:41;;;;;;;16.90;13.57;;;;;;;;;;5050918;28;20527;-74
2023/01/23 09:30:10;;;;;;;15.83;11.30;;;;;;;;;;5051169;28;20457;-72
2023/01/23 09:32:37;;;;;;;15.27;11.93;;;;;;;;;;5051410;28;20453;-73
2023/01/23 09:35:05;;;;;;;17.27;12.47;;;;;;;;;;5052880;28;20543;-74
2023/01/23 09:37:58;;;;;;;13.67;10.73;;;;;;;;;;5054929;28;20596;-74
2023/01/23 09:40:22;;;;;;;17.47;12.83;;;;;;;;;;5058351;28;20462;-73
2023/01/23 09:42:49;;;;;;;17.70;12.83;;;;;;;;;;5071602;28;20541;-73
2023/01/23 09:45:20;;;;;;;15.90;11.30;;;;;;;;;;5071930;28;20445;-73
2023/01/23 09:47:52;;;;;;;14.10;10.93;;;;;;;;;;5071214;28;20446;-74
2023/01/23 09:50:21;;;;;;;15.07;11.83;;;;;;;;;;5070397;28;20466;-76
2023/01/23 09:52:53;;;;;;;14.63;11.57;;;;;;;;;;5069825;28;20956;-75
2023/01/23 09:55:23;;;;;;;16.53;12.37;;;;;;;;;;5070114;28;20914;-74
2023/01/23 09:57:53;;;;;;;15.60;12.20;;;;;;;;;;5070438;28;20967;-75
2023/01/23 10:00:24;;;;;;;15.03;12.60;;;;;;;;;;5070229;28;20671;-73
2023/01/23 10:02:52;;;;;;;14.60;11.17;;;;;;;;;;5070760;28;20448;-78
2023/01/23 10:05:21;;;;;;;14.73;12.33;;;;;;;;;;5070302;28;20469;-75
2023/01/23 10:08:01;;;;;;;15.50;12.40;;;;;;;;;;5070801;28;20457;-74
2023/01/23 10:11:03;;;;;;;14.90;12.07;;;;;;;;;;5072988;28;20460;-74
2023/01/23 10:13:35;;;;;;;18.40;13.50;;;;;;;;;;5011641;28;20440;-73
2023/01/23 10:16:11;;;;;;;16.03;11.90;;;;;;;;;;5011680;28;21141;-74
2023/01/23 10:18:43;;;;;;;14.67;12.40;;;;;;;;;;5034591;28;20443;-74
2023/01/23 10:21:16;;;;;;;14.97;11.67;;;;;;;;;;5054255;28;20443;-75
2023/01/23 10:23:48;;;;;;;16.63;12.27;;;;;;;;;;5053921;28;20450;-75
2023/01/23 10:26:16;;;;;;;14.90;12.07;;;;;;;;;;5053838;28;20457;-73
2023/01/23 10:28:44;;;;;;;17.00;12.63;;;;;;;;;;5054022;28;20448;-73
2023/01/23 10:31:14;;;;;;;16.00;11.70;;;;;;;;;;5054109;28;20473;-76
2023/01/23 10:33:46;;;;;;;17.33;13.30;;;;;;;;;;5053883;28;20452;-74
2023/01/23 10:36:18;;;;;;;15.20;11.97;;;;;;;;;;5053581;28;20477;-73
2023/01/23 10:38:48;;;;;;;13.60;11.70;;;;;;;;;;5053678;28;20450;-74
2023/01/23 10:41:18;;;;;;;14.63;12.63;;;;;;;;;;5058724;28;21014;-74
2023/01/23 10:43:47;;;;;;;16.37;11.57;;;;;;;;;;5058998;28;20451;-74
2023/01/23 10:46:16;;;;;;;14.60;12.33;;;;;;;;;;5055250;28;20441;-74
2023/01/23 10:48:44;;;;;;;15.27;12.33;;;;;;;;;;5055107;28;20453;-74
2023/01/23 10:51:28;;;;;;;16.43;12.47;;;;;;;;;;5054951;28;20449;-74
2023/01/23 10:54:17;;;;;;;15.20;11.03;;;;;;;;;;5054423;28;20440;-74
2023/01/23 10:56:50;;;;;;;16.20;12.27;;;;;;;;;;5052308;28;20490;-74
2023/01/23 10:59:20;;;;;;;17.37;12.60;;;;;;;;;;5054755;28;20470;-74
2023/01/23 11:01:57;;;;;;;16.43;13.33;;;;;;;;;;5054306;28;20448;-75
2023/01/23 11:04:25;;;;;;;15.93;12.40;;;;;;;;;;5053340;28;20526;-73
2023/01/23 11:07:01;;;;;;;16.97;12.60;;;;;;;;;;5053362;28;20454;-75
2023/01/23 11:09:29;;;;;;;19.53;13.50;;;;;;;;;;5053720;28;20491;-74
2023/01/23 11:12:00;;;;;;;17.33;13.27;;;;;;;;;;5052532;28;20791;-73
2023/01/23 11:14:27;;;;;;;17.13;12.50;;;;;;;;;;5052151;28;20447;-74
2023/01/23 11:17:03;;;;;;;15.53;11.93;;;;;;;;;;5071160;28;20477;-73
2023/01/23 11:19:32;;;;;;;16.50;12.30;;;;;;;;;;5072736;28;20464;-73
2023/01/23 11:22:00;;;;;;;14.90;12.00;;;;;;;;;;5071222;28;20536;-73
2023/01/23 11:24:32;;;;;;;16.20;12.30;;;;;;;;;;5072449;28;20433;-74
2023/01/23 11:27:00;;;;;;;15.83;12.63;;;;;;;;;;5072457;28;20600;-75
2023/01/23 11:29:29;;;;;;;16.87;12.87;;;;;;;;;;5072172;28;20461;-74
2023/01/23 11:31:58;;;;;;;15.90;11.93;;;;;;;;;;5072464;28;20477;-74
2023/01/23 11:34:29;;;;;;;17.27;12.47;;;;;;;;;;5072115;28;20448;-74
2023/01/23 11:37:03;;;;;;;15.87;12.60;;;;;;;;;;5072647;28;20490;-74
2023/01/23 11:39:36;;;;;;;18.37;13.17;;;;;;;;;;5072036;28;20554;-75
2023/01/23 11:42:04;;;;;;;16.80;12.37;;;;;;;;;;5071878;28;20435;-74
2023/01/23 11:44:32;;;;;;;15.30;11.80;;;;;;;;;;5071429;28;20445;-74
2023/01/23 11:47:18;;;;;;;18.00;12.23;;;;;;;;;;5072119;28;20468;-74
2023/01/23 11:50:03;;;;;;;16.60;12.33;;;;;;;;;;5071659;28;20896;-74
2023/01/23 11:52:36;;;;;;;18.17;14.07;;;;;;;;;;5071550;28;20526;-75
2023/01/23 11:55:18;;;;;;;16.47;13.00;;;;;;;;;;5072141;28;20479;-75
2023/01/23 11:57:53;;;;;;;19.30;13.70;;;;;;;;;;5069696;28;20449;-74
2023/01/23 12:00:23;;;;;;;17.50;12.10;;;;;;;;;;5071774;28;21106;-74
2023/01/23 12:03:11;;;;;;;16.73;12.93;;;;;;;;;;5071373;28;20460;-74
2023/01/23 12:05:53;;;;;;;16.80;12.93;;;;;;;;;;5072576;28;20430;-73
2023/01/23 12:08:23;;;;;;;21.23;15.37;;;;;;;;;;5071811;28;20454;-74
2023/01/23 12:10:53;;;;;;;21.13;14.90;;;;;;;;;;5070928;28;20467;-74
2023/01/23 12:13:28;;;;;;;19.00;14.40;;;;;;;;;;5071563;28;20519;-75
2023/01/23 12:16:02;;;;;;;18.70;13.60;;;;;;;;;;5064183;28;20562;-74
2023/01/23 12:18:36;;;;;;;16.93;13.53;;;;;;;;;;5053708;28;20431;-75
2023/01/23 12:21:08;;;;;;;15.83;12.63;;;;;;;;;;5052293;28;20451;-74
2023/01/23 12:23:48;;;;;;;18.30;13.57;;;;;;;;;;5051638;28;20754;-74
2023/01/23 12:26:18;;;;;;;14.97;11.97;;;;;;;;;;5052281;28;20448;-75
2023/01/23 12:29:00;;;;;;;17.87;13.87;;;;;;;;;;5052333;28;20439;-74
2023/01/23 12:31:35;;;;;;;20.20;15.40;;;;;;;;;;5050806;28;20974;-74
2023/01/23 12:34:23;;;;;;;15.67;11.70;;;;;;;;;;5051694;28;20547;-75
2023/01/23 12:37:06;;;;;;;18.80;14.10;;;;;;;;;;5048985;28;20907;-74
2023/01/23 12:39:55;;;;;;;19.30;13.67;;;;;;;;;;5050539;28;20514;-75
2023/01/23 12:42:24;;;;;;;16.63;13.13;;;;;;;;;;5051350;28;20504;-75
2023/01/23 12:44:55;;;;;;;18.90;14.10;;;;;;;;;;5052008;28;20474;-74
2023/01/23 12:47:25;;;;;;;18.10;14.50;;;;;;;;;;5060793;28;20446;-74
2023/01/23 12:49:54;;;;;;;19.07;14.07;;;;;;;;;;5074566;28;20551;-74
2023/01/23 12:52:23;;;;;;;17.90;13.93;;;;;;;;;;5074353;28;20443;-75
2023/01/23 12:54:53;;;;;;;15.23;12.93;;;;;;;;;;5075230;28;20440;-75
2023/01/23 13:00:04;;;;;;;16.90;12.47;;;;;;;;;;5074084;28;20672;-75
2023/01/23 13:02:34;;;;;;;17.53;13.60;;;;;;;;;;5070854;28;20446;-75
2023/01/23 13:05:07;;;;;;;16.37;12.70;;;;;;;;;;5071105;28;20446;-74
2023/01/23 13:07:41;;;;;;;16.43;12.63;;;;;;;;;;5071707;28;20456;-74
2023/01/23 13:10:25;;;;;;;18.57;12.93;;;;;;;;;;5071665;28;20469;-75
2023/01/23 13:12:54;;;;;;;20.80;15.40;;;;;;;;;;5070842;28;20445;-76
2023/01/23 13:15:24;;;;;;;16.23;11.90;;;;;;;;;;5070793;28;20443;-75
2023/01/23 13:17:52;;;;;;;19.03;12.77;;;;;;;;;;5070802;28;20481;-76
2023/01/23 13:23:25;;;;;;;16.07;11.63;;;;;;;;;;5069998;28;20490;-74
2023/01/23 13:26:12;;;;;;;17.17;12.47;;;;;;;;;;5069895;28;20942;-75
2023/01/23 13:28:41;;;;;;;17.30;12.33;;;;;;;;;;5070163;28;20451;-74
2023/01/23 13:31:23;;;;;;;19.10;13.67;;;;;;;;;;5070328;28;20466;-75
2023/01/23 13:33:51;;;;;;;18.60;12.80;;;;;;;;;;5070800;28;20451;-74
2023/01/23 13:36:36;;;;;;;16.00;12.53;;;;;;;;;;5070507;28;20516;-75
2023/01/23 13:39:21;;;;;;;16.10;11.90;;;;;;;;;;5072098;28;20486;-73
2023/01/23 13:41:50;;;;;;;14.40;11.50;;;;;;;;;;5070795;28;20493;-74
2023/01/23 13:44:18;;;;;;;17.57;12.83;;;;;;;;;;5069375;28;20450;-74
2023/01/23 13:46:53;;;;;;;13.97;11.63;;;;;;;;;;5069921;28;20469;-75
2023/01/23 13:57:42;;;;;;;18.63;12.13;;;;;;;;;;5068367;28;20509;-74
2023/01/23 14:00:15;;;;;;;15.13;12.10;;;;;;;;;;5069592;28;20470;-74
2023/01/23 14:05:29;;;;;;;14.77;12.50;;;;;;;;;;5069456;28;20423;-74
2023/01/23 14:08:01;;;;;;;13.43;11.53;;;;;;;;;;5069952;28;20466;-74
2023/01/23 14:10:29;;;;;;;15.00;11.77;;;;;;;;;;5070739;28;20549;-74
2023/01/23 14:13:05;;;;;;;14.60;10.90;;;;;;;;;;5070448;28;20475;-75
2023/01/23 14:18:28;;;;;;;15.23;11.10;;;;;;;;;;5051549;28;20473;-75
2023/01/23 14:20:55;;;;;;;17.97;13.40;;;;;;;;;;5050479;28;20767;-74
2023/01/23 14:23:28;;;;;;;16.33;12.53;;;;;;;;;;5050421;28;20442;-75
2023/01/23 14:25:55;;;;;;;15.77;11.90;;;;;;;;;;5050811;28;20959;-75
2023/01/23 14:28:23;;;;;;;15.30;12.00;;;;;;;;;;5050405;28;20472;-75
2023/01/23 14:30:57;;;;;;;15.47;12.43;;;;;;;;;;5050103;28;20471;-75
2023/01/23 14:33:24;;;;;;;15.07;12.80;;;;;;;;;;5049828;28;20807;-75
2023/01/23 14:35:52;;;;;;;15.60;11.10;;;;;;;;;;5050286;28;20448;-74
2023/01/23 14:38:23;;;;;;;20.17;12.40;;;;;;;;;;5050096;28;20472;-75
2023/01/23 14:40:50;;;;;;;16.87;12.00;;;;;;;;;;5050059;28;20503;-74
2023/01/23 14:43:18;;;;;;;13.77;11.70;;;;;;;;;;5049606;28;20977;-75
2023/01/23 14:45:48;;;;;;;16.43;12.20;;;;;;;;;;5049807;28;20448;-75
2023/01/23 14:48:17;;;;;;;14.00;11.10;;;;;;;;;;5050694;28;20451;-75
2023/01/23 14:50:44;;;;;;;14.77;11.53;;;;;;;;;;5050457;28;20457;-75
2023/01/23 14:53:16;;;;;;;16.70;12.60;;;;;;;;;;5049932;28;20440;-75
2023/01/23 14:55:45;;;;;;;15.47;12.23;;;;;;;;;;5050550;28;20460;-75